Stations météo

réclame
Mon MeteoGroup
Dunstaffnage, Grande-Bretagne (99006): Température de l'air & dewpoint: 14.01.2019 21:00:00 - 20.01.2019 21:00:00 (GMT)Dunstaffnage, Grande-Bretagne (99006): Température de l'air -20cm: 14.01.2019 21:00:00 - 20.01.2019 21:00:00 (GMT)Dunstaffnage, Grande-Bretagne (99006): Vitesse du vent & gusts: 14.01.2019 21:00:00 - 20.01.2019 21:00:00 (GMT)Dunstaffnage, Grande-Bretagne (99006): Direction du vent: 14.01.2019 21:00:00 - 20.01.2019 21:00:00 (GMT)Dunstaffnage, Grande-Bretagne (99006): Quantités de précipitations: 14.01.2019 21:00:00 - 20.01.2019 21:00:00 (GMT)
Date & Time tt [°C] td [°C] tt -20cm [°C] ff [km/h] ff [knt] fx [km/h] fx [knt] dd rr [mm]
20.01.2019 21:00:00 3,5 1,5 - 2 1 - - SSW 0,0
20.01.2019 20:00:00 3,0 1,3 - 2 1 - - SW 0,0
20.01.2019 19:00:00 4,0 1,3 - 5 3 - - SW 0,0
20.01.2019 18:00:00 5,0 1,4 - 13 7 - - NNW 0,0
20.01.2019 17:00:00 5,0 1,5 - 8 4 - - W 0,2
20.01.2019 16:00:00 6,1 1,1 - 16 9 - - WNW 0,0
20.01.2019 15:00:00 6,7 0,6 - 21 11 - - NW 0,0
20.01.2019 14:00:00 6,8 2,1 - 15 8 52 28 WNW 0,0
20.01.2019 13:00:00 6,6 1,7 - 8 4 - - NNW 0,0
20.01.2019 12:00:00 6,0 2,4 - 9 5 - - N 0,2
20.01.2019 11:00:00 5,3 4,4 - 22 12 - - WNW 0,0
20.01.2019 10:00:00 3,2 2,5 - 8 4 - - E 0,0
20.01.2019 09:00:00 3,3 2,3 4,7 2 1 - - SSE 0,4
20.01.2019 08:00:00 3,1 1,8 - 11 6 - - ESE 0,0
20.01.2019 07:00:00 3,0 1,7 - 11 6 - - E 0,0
20.01.2019 06:00:00 3,1 1,6 - 13 7 - - E 0,0
20.01.2019 05:00:00 3,2 1,7 - 13 7 - - ESE 0,0
20.01.2019 04:00:00 3,3 1,6 - 11 6 - - ESE 0,0
20.01.2019 03:00:00 3,2 1,4 - 9 5 - - SE 0,0
20.01.2019 02:00:00 3,0 1,3 - 13 7 - - E 0,0
20.01.2019 01:00:00 3,0 1,2 - 13 7 - - E 0,0
20.01.2019 00:00:00 3,1 1,1 - 16 9 - - ESE 0,0
19.01.2019 23:00:00 3,2 1,2 - 15 8 - - ESE 0,0
19.01.2019 22:00:00 3,4 1,2 - 15 8 - - E 0,0
19.01.2019 21:00:00 3,5 1,2 - 13 7 - - ESE 0,0
19.01.2019 20:00:00 3,5 1,3 - 11 6 - - ESE 0,0
19.01.2019 19:00:00 3,7 1,2 - 13 7 - - ESE 0,0
19.01.2019 18:00:00 3,5 1,0 - 13 7 - - E 0,0
19.01.2019 17:00:00 4,1 1,1 - 13 7 - - ESE 0,0
19.01.2019 16:00:00 4,7 1,8 - 9 5 - - E 0,0
19.01.2019 15:00:00 5,3 1,5 - 8 4 - - ESE 0,0
19.01.2019 14:00:00 6,0 1,6 - 15 8 - - E 0,0
19.01.2019 13:00:00 6,0 1,9 - 11 6 - - E 0,0
19.01.2019 12:00:00 5,0 2,0 - 13 7 - - ESE 0,0
19.01.2019 11:00:00 4,6 2,6 - 13 7 - - E 0,0
19.01.2019 10:00:00 3,8 2,1 - 5 3 - - E 0,0
19.01.2019 09:00:00 3,3 2,0 4,7 8 4 - - E 0,4
19.01.2019 08:00:00 3,5 1,7 - 11 6 - - ESE 0,2
19.01.2019 07:00:00 3,9 1,4 - 15 8 - - E 0,0
19.01.2019 06:00:00 4,1 1,2 - 15 8 - - E 0,0
19.01.2019 05:00:00 3,8 0,9 - 5 3 - - E 0,0
19.01.2019 04:00:00 3,9 1,0 - 11 6 - - E 0,0
19.01.2019 03:00:00 4,4 1,3 - 16 9 - - E 0,0
19.01.2019 02:00:00 4,2 1,1 - 13 7 - - NE 0,0
19.01.2019 01:00:00 4,1 1,2 - 26 14 - - E 0,0
19.01.2019 00:00:00 3,9 1,0 - 24 13 - - E 0,0
18.01.2019 23:00:00 3,3 0,9 - 9 5 - - E 0,0
18.01.2019 22:00:00 3,0 1,2 - 26 14 - - E 0,2
18.01.2019 21:00:00 2,2 0,9 - 22 12 - - E 0,2
18.01.2019 20:00:00 2,8 0,3 - 22 12 - - E 0,0
18.01.2019 19:00:00 3,3 -0,1 - 24 13 - - E 0,0
18.01.2019 18:00:00 3,6 -1,0 - 24 13 - - E 0,0
18.01.2019 17:00:00 3,4 -1,8 - 31 17 50 27 E 0,0
18.01.2019 16:00:00 3,5 -2,3 - 24 13 46 25 E 0,0
18.01.2019 15:00:00 4,0 -2,4 - 28 15 46 25 E 0,0
18.01.2019 14:00:00 4,1 -2,5 - 24 13 48 26 E 0,0
18.01.2019 13:00:00 4,0 -2,6 - 29 16 - - E 0,0
18.01.2019 12:00:00 3,5 -2,0 - 24 13 46 25 E 0,0
18.01.2019 11:00:00 3,2 -1,6 - 28 15 - - E 0,0
18.01.2019 10:00:00 2,7 -1,1 - 24 13 - - E 0,0
18.01.2019 09:00:00 2,3 -1,4 4,7 22 12 - - E 0,0
18.01.2019 08:00:00 2,3 -1,8 - 21 11 - - E 0,0
18.01.2019 07:00:00 2,0 -2,0 - 24 13 - - E 0,0
18.01.2019 06:00:00 1,9 -2,4 - 16 9 - - ESE 0,0
18.01.2019 05:00:00 1,8 -2,6 - 18 10 - - E 0,0
18.01.2019 04:00:00 1,9 -2,9 - 18 10 - - ESE 0,0
18.01.2019 03:00:00 1,8 -3,0 - 18 10 - - E 0,0
18.01.2019 02:00:00 1,6 -3,3 - 8 4 - - E 0,0
18.01.2019 01:00:00 1,6 -3,1 - 8 4 - - SE 0,0
18.01.2019 00:00:00 1,8 -2,7 - 13 7 - - SE 0,0
17.01.2019 23:00:00 1,1 -1,9 - 13 7 - - E 0,0
17.01.2019 22:00:00 1,1 -1,8 - 13 7 - - E 0,0
17.01.2019 21:00:00 1,3 -1,7 - 15 8 - - E 0,0
17.01.2019 20:00:00 0,8 -1,1 - 11 6 - - E 0,0
17.01.2019 19:00:00 1,3 -1,2 - 9 5 - - E 0,0
17.01.2019 18:00:00 1,4 -0,8 - 5 3 - - E 0,0
17.01.2019 17:00:00 1,9 -0,9 - 2 1 - - S 0,0
17.01.2019 16:00:00 2,2 -1,0 - 2 1 - - W 0,0
17.01.2019 15:00:00 2,6 -0,4 - 5 3 - - S 0,0
17.01.2019 14:00:00 5,2 -2,4 - 2 1 - - NW 0,0
17.01.2019 13:00:00 4,8 -1,2 - 5 3 - - WNW 0,0
17.01.2019 12:00:00 4,3 0,1 - 2 1 - - SSE 0,0
17.01.2019 11:00:00 1,5 -0,3 - 4 2 - - SSW 0,0
17.01.2019 10:00:00 -1,0 -2,4 - 4 2 - - SSW 0,0
17.01.2019 09:00:00 0,0 -2,5 6,0 5 3 - - S 0,0
17.01.2019 08:00:00 1,9 -0,2 - 5 3 - - ENE 0,0
17.01.2019 07:00:00 2,4 0,3 - 11 6 - - NE 0,0
17.01.2019 06:00:00 2,9 0,4 - 28 15 61 33 NW 0,0
17.01.2019 05:00:00 2,9 -1,0 - 13 7 46 25 NNW 0,0
17.01.2019 04:00:00 2,8 -2,3 - 16 9 - - NNW 0,0
17.01.2019 03:00:00 2,4 -3,5 - 11 6 - - N 0,0
17.01.2019 02:00:00 2,3 -2,1 - 13 7 - - N 0,0
17.01.2019 01:00:00 2,2 -1,8 - 15 8 - - NNW 0,0
17.01.2019 00:00:00 4,2 -4,5 - 28 15 - - NW 0,0
16.01.2019 23:00:00 3,9 -6,1 - 26 14 52 28 NNW 0,0
16.01.2019 22:00:00 4,7 -1,6 - 28 15 50 27 NNW 0,0
16.01.2019 21:00:00 5,2 0,6 - 16 9 55 30 NNW 0,0
16.01.2019 20:00:00 5,0 2,1 - 29 16 - - WNW 0,0
16.01.2019 19:00:00 5,0 1,9 - 29 16 - - WNW 0,0
16.01.2019 18:00:00 4,8 2,0 - 13 7 - - WNW 0,2
16.01.2019 17:00:00 4,8 2,2 - 18 10 - - WNW 0,0
16.01.2019 16:00:00 5,0 2,4 - 18 10 - - WNW 0,0
16.01.2019 15:00:00 5,5 2,7 - 16 9 50 27 WNW 0,4
16.01.2019 14:00:00 5,5 2,8 - 29 16 46 25 W 0,0
16.01.2019 13:00:00 5,1 3,1 - 24 13 - - W 1,2
16.01.2019 12:00:00 5,7 3,1 - 24 13 57 31 WNW 0,2
16.01.2019 11:00:00 5,1 2,4 - 16 9 52 28 WSW 0,0
16.01.2019 10:00:00 5,9 2,3 - 26 14 - - WSW 0,0
16.01.2019 09:00:00 5,3 2,9 7,4 34 18 52 28 W 0,0
16.01.2019 08:00:00 6,2 2,9 - 21 11 - - WSW 0,0
16.01.2019 07:00:00 7,0 3,1 - 24 13 - - WSW 0,0
16.01.2019 06:00:00 7,0 4,2 - 31 17 - - WSW 0,2
16.01.2019 05:00:00 7,0 5,1 - 16 9 - - WSW 0,2
16.01.2019 04:00:00 7,0 5,7 - 16 9 - - SW 0,6
16.01.2019 03:00:00 7,0 6,0 - 15 8 - - SW 0,8
16.01.2019 02:00:00 7,0 6,4 - 5 3 - - SSW 1,6
16.01.2019 01:00:00 7,3 6,6 - 16 9 - - W 2,8
16.01.2019 00:00:00 8,0 7,2 - 21 11 48 26 SW 1,8
15.01.2019 23:00:00 8,7 7,3 - 26 14 55 30 SW 0,2
15.01.2019 22:00:00 8,9 7,8 - 26 14 - - SW 0,6
15.01.2019 21:00:00 8,9 7,9 - 24 13 46 25 SW 0,8
15.01.2019 20:00:00 9,1 7,7 - 24 13 46 25 SW 0,4
15.01.2019 19:00:00 8,9 8,0 - 29 16 48 26 WSW 0,8
15.01.2019 18:00:00 8,9 8,0 - 24 13 - - SW 0,6
15.01.2019 17:00:00 8,7 7,8 - 21 11 - - WSW 0,2
15.01.2019 16:00:00 8,5 7,6 - 21 11 46 25 SW 0,2
15.01.2019 15:00:00 9,5 7,1 - 28 15 48 26 WSW 0,0
15.01.2019 14:00:00 9,7 8,2 - 31 17 50 27 WSW 0,2
15.01.2019 13:00:00 10,3 8,4 - 34 18 50 27 WSW 0,0
15.01.2019 12:00:00 9,8 8,9 - 29 16 50 27 WSW 0,2
15.01.2019 11:00:00 9,9 8,8 - 28 15 48 26 WSW 0,0
15.01.2019 10:00:00 10,1 8,6 - 28 15 50 27 WSW 0,0
15.01.2019 09:00:00 10,0 8,6 7,2 26 14 - - WSW 0,0
15.01.2019 08:00:00 9,8 8,7 - 31 17 50 27 WSW 0,0
15.01.2019 07:00:00 9,9 8,8 - 34 18 48 26 WSW 0,2
15.01.2019 06:00:00 10,2 9,0 - 35 19 48 26 WSW 0,4
15.01.2019 05:00:00 9,9 9,3 - 28 15 - - WSW 1,0
15.01.2019 04:00:00 10,0 9,3 - 29 16 - - WSW 0,2
15.01.2019 03:00:00 10,0 9,4 - 29 16 46 25 WSW 0,4
15.01.2019 02:00:00 9,5 9,0 - 28 15 48 26 WSW 0,4
15.01.2019 01:00:00 9,2 8,7 - 26 14 - - WSW 0,2
15.01.2019 00:00:00 9,4 8,2 - 21 11 - - WSW 0,0
14.01.2019 23:00:00 9,2 7,7 - 21 11 - - SW 0,0
14.01.2019 22:00:00 8,9 7,9 - 21 11 - - WSW 0,2
14.01.2019 21:00:00 8,7 7,8 - 21 11 - - WSW 0,0

tt = Température de l'air
td = dewpoint
tt -20cm = Température de l'air -20cm
ff = Vitesse du vent
fx = gusts
dd = Direction du vent
rr = Quantités de précipitations

stations d'obs. à proximité